createdAt,value
2022-11-28T00:00:50.927Z,4.10
2022-11-28T00:05:53.115Z,4.10
2022-11-28T00:10:56.887Z,4.10
2022-11-28T00:15:59.895Z,4.10
2022-11-28T00:21:08.223Z,4.10
2022-11-28T00:26:19.427Z,4.10
2022-11-28T00:31:27.933Z,4.00
2022-11-28T00:36:29.983Z,4.00
2022-11-28T00:41:34.031Z,4.10
2022-11-28T00:46:35.967Z,4.00
2022-11-28T00:51:38.363Z,4.00
2022-11-28T00:56:41.356Z,3.90
2022-11-28T01:01:44.300Z,3.90
2022-11-28T01:06:49.935Z,3.90
2022-11-28T01:11:53.366Z,3.90
2022-11-28T01:16:55.186Z,3.80
2022-11-28T01:21:57.134Z,3.80
2022-11-28T01:26:59.204Z,3.70
2022-11-28T01:32:01.098Z,3.70
2022-11-28T01:37:03.014Z,3.70
2022-11-28T01:42:05.887Z,3.70
2022-11-28T01:47:07.794Z,3.70
2022-11-28T01:52:13.106Z,3.60
2022-11-28T01:57:20.922Z,3.60
2022-11-28T02:02:39.851Z,3.60
2022-11-28T02:07:43.144Z,3.60
2022-11-28T02:13:03.519Z,3.60
2022-11-28T02:18:23.228Z,3.70
2022-11-28T02:23:51.327Z,3.70
2022-11-28T02:29:37.923Z,3.70
2022-11-28T02:34:55.008Z,3.70
2022-11-28T02:40:06.657Z,3.70
2022-11-28T02:45:20.848Z,3.80
2022-11-28T02:50:25.503Z,3.80
2022-11-28T02:55:27.714Z,3.80
2022-11-28T03:00:38.076Z,3.70
2022-11-28T03:06:02.333Z,3.80
2022-11-28T03:11:10.139Z,3.80
2022-11-28T03:16:23.519Z,3.80
2022-11-28T03:21:57.817Z,3.80
2022-11-28T03:27:16.436Z,3.90
2022-11-28T03:32:38.470Z,3.90
2022-11-28T03:37:44.352Z,3.90
2022-11-28T03:42:53.946Z,4.00
2022-11-28T03:48:03.369Z,4.00
2022-11-28T03:53:10.003Z,4.00
2022-11-28T03:58:23.307Z,4.00
2022-11-28T04:03:43.871Z,4.00
2022-11-28T04:08:52.352Z,4.00
2022-11-28T04:13:57.986Z,4.00
2022-11-28T04:19:21.636Z,4.00
2022-11-28T04:24:30.644Z,4.10
2022-11-28T04:29:37.502Z,4.00
2022-11-28T04:34:41.942Z,4.00
2022-11-28T04:39:47.389Z,4.00
2022-11-28T04:44:59.101Z,4.00
2022-11-28T04:50:01.198Z,4.00
2022-11-28T04:55:08.388Z,4.00
2022-11-28T05:00:13.344Z,4.00
2022-11-28T05:05:19.713Z,4.00
2022-11-28T05:10:21.647Z,4.00
2022-11-28T05:15:23.502Z,4.00
2022-11-28T05:20:25.583Z,4.00
2022-11-28T05:25:27.403Z,4.00
2022-11-28T05:30:29.338Z,4.00
2022-11-28T05:35:31.700Z,4.10
2022-11-28T05:40:33.527Z,4.10
2022-11-28T05:45:35.395Z,4.00
2022-11-28T05:50:41.172Z,4.00
2022-11-28T05:55:43.039Z,4.00
2022-11-28T06:00:44.861Z,4.00
2022-11-28T06:05:46.761Z,4.00
2022-11-28T06:10:57.073Z,4.00
2022-11-28T06:15:59.417Z,4.00
2022-11-28T06:21:02.835Z,4.00
2022-11-28T06:26:13.127Z,4.00
2022-11-28T06:31:20.360Z,4.10
2022-11-28T06:36:22.576Z,4.10
2022-11-28T06:41:24.491Z,4.10
2022-11-28T06:46:26.467Z,4.20
2022-11-28T06:51:28.596Z,4.20
2022-11-28T06:56:30.440Z,4.10
2022-11-28T07:01:34.250Z,4.20
2022-11-28T07:06:37.682Z,4.20
2022-11-28T07:11:41.345Z,4.20
2022-11-28T07:16:43.560Z,4.20
2022-11-28T07:21:45.419Z,4.20
2022-11-28T07:26:47.267Z,4.30
2022-11-28T07:31:49.166Z,4.40
2022-11-28T07:36:51.202Z,4.40
2022-11-28T07:41:53.068Z,4.40
2022-11-28T07:46:55.024Z,4.30
2022-11-28T07:51:57.241Z,4.30
2022-11-28T07:57:14.429Z,4.40
2022-11-28T08:02:16.464Z,4.40
2022-11-28T08:07:18.401Z,4.40
2022-11-28T08:12:20.288Z,4.40
2022-11-28T08:17:22.180Z,4.40
2022-11-28T08:22:24.056Z,4.50
2022-11-28T08:27:26.064Z,4.50
2022-11-28T08:32:30.102Z,4.60
2022-11-28T08:37:34.386Z,4.70
2022-11-28T08:42:36.341Z,4.80
2022-11-28T08:47:38.348Z,4.90
2022-11-28T08:52:41.274Z,5.10
2022-11-28T08:57:43.287Z,5.30
2022-11-28T09:02:45.140Z,5.20
2022-11-28T09:07:47.015Z,5.30
2022-11-28T09:12:49.010Z,5.30
2022-11-28T09:17:50.820Z,5.20
2022-11-28T09:22:52.666Z,5.40
2022-11-28T09:27:54.496Z,5.40
2022-11-28T09:32:56.367Z,5.50
2022-11-28T09:37:58.738Z,5.40
2022-11-28T09:43:01.420Z,5.40
2022-11-28T09:48:18.881Z,5.40
2022-11-28T09:53:37.149Z,5.50
2022-11-28T09:58:52.151Z,5.50
2022-11-28T10:03:57.168Z,5.60
2022-11-28T10:09:22.630Z,5.60
2022-11-28T10:14:41.899Z,5.70
2022-11-28T10:19:56.971Z,5.80
2022-11-28T10:25:07.511Z,6.00
2022-11-28T10:30:22.017Z,6.10
2022-11-28T10:35:44.245Z,6.00
2022-11-28T10:40:59.359Z,6.00
2022-11-28T10:46:20.334Z,6.00
2022-11-28T10:51:46.141Z,6.10
2022-11-28T10:57:03.603Z,6.10
2022-11-28T11:02:51.209Z,6.10
2022-11-28T11:07:58.061Z,6.00
2022-11-28T11:13:00.040Z,6.10
2022-11-28T11:18:06.549Z,6.00
2022-11-28T11:23:16.838Z,6.00
2022-11-28T11:28:44.299Z,6.10
2022-11-28T11:33:46.621Z,6.10
2022-11-28T11:38:48.843Z,6.10
2022-11-28T11:43:50.789Z,6.10
2022-11-28T11:48:53.736Z,6.10
2022-11-28T11:54:17.715Z,6.20
2022-11-28T11:59:46.041Z,6.10
2022-11-28T12:04:55.328Z,6.10
2022-11-28T12:10:04.135Z,6.00
2022-11-28T12:15:16.246Z,6.00
2022-11-28T12:20:30.206Z,5.90
2022-11-28T12:25:59.423Z,5.90
2022-11-28T12:31:19.540Z,5.90
2022-11-28T12:36:24.140Z,5.80
2022-11-28T12:41:55.512Z,5.80
2022-11-28T12:47:14.076Z,5.80
2022-11-28T12:52:41.152Z,5.70
2022-11-28T12:58:06.721Z,5.60
2022-11-28T13:03:19.899Z,5.60
2022-11-28T13:08:51.657Z,5.50
2022-11-28T13:14:16.358Z,5.50
2022-11-28T13:19:33.236Z,5.50
2022-11-28T13:24:51.004Z,5.40
2022-11-28T13:30:25.032Z,5.30
2022-11-28T13:35:27.689Z,5.30
2022-11-28T13:40:38.740Z,5.30
2022-11-28T13:45:42.573Z,5.20
2022-11-28T13:50:59.386Z,5.20
2022-11-28T13:56:07.355Z,5.20
2022-11-28T14:01:14.442Z,5.10
2022-11-28T14:06:22.438Z,5.10
2022-11-28T14:11:42.698Z,5.10
2022-11-28T14:16:54.989Z,5.00
2022-11-28T14:22:05.905Z,4.90
2022-11-28T14:27:15.780Z,4.80
2022-11-28T14:32:32.707Z,4.80
2022-11-28T14:37:36.610Z,4.70
2022-11-28T14:48:24.074Z,4.60
2022-11-28T14:53:49.051Z,4.50
2022-11-28T14:58:52.646Z,4.40
2022-11-28T15:04:04.770Z,4.40
2022-11-28T15:09:18.634Z,4.40
2022-11-28T15:14:22.342Z,4.30
2022-11-28T15:19:24.252Z,4.30
2022-11-28T15:24:28.994Z,4.30
2022-11-28T15:29:31.527Z,4.20
2022-11-28T15:34:35.192Z,4.20
2022-11-28T15:39:40.074Z,4.20
2022-11-28T15:44:43.063Z,4.20
2022-11-28T15:49:46.882Z,4.10
2022-11-28T15:54:51.527Z,4.10
2022-11-28T15:59:53.462Z,4.10
2022-11-28T16:05:07.119Z,4.00
2022-11-28T16:10:22.107Z,4.10
2022-11-28T16:15:24.890Z,4.10
2022-11-28T16:20:33.693Z,4.10
2022-11-28T16:25:35.946Z,4.10
2022-11-28T16:30:42.637Z,4.10
2022-11-28T16:35:44.518Z,4.10
2022-11-28T16:40:46.586Z,4.00
2022-11-28T16:45:57.464Z,4.10
2022-11-28T16:51:02.546Z,4.10
2022-11-28T16:56:04.449Z,4.00
2022-11-28T17:01:08.955Z,4.00
2022-11-28T17:06:17.732Z,4.00
2022-11-28T17:11:22.010Z,4.00
2022-11-28T17:16:25.654Z,4.00
2022-11-28T17:21:37.529Z,4.00
2022-11-28T17:26:39.322Z,3.90
2022-11-28T17:31:42.331Z,3.90
2022-11-28T17:36:44.465Z,3.90
2022-11-28T17:41:47.327Z,3.90
2022-11-28T17:46:50.357Z,3.90
2022-11-28T17:51:53.866Z,3.90
2022-11-28T17:56:56.257Z,3.90
2022-11-28T18:01:59.500Z,3.90
2022-11-28T18:07:01.657Z,3.80
2022-11-28T18:12:03.690Z,3.80
2022-11-28T18:17:05.549Z,3.80
2022-11-28T18:22:08.571Z,3.80
2022-11-28T18:27:10.476Z,3.80
2022-11-28T18:32:12.331Z,3.80
2022-11-28T18:37:14.404Z,3.80
2022-11-28T18:42:17.054Z,3.80
2022-11-28T18:47:19.099Z,3.70
2022-11-28T18:52:21.207Z,3.80
2022-11-28T18:57:23.543Z,3.70
2022-11-28T19:02:25.582Z,3.70
2022-11-28T19:07:27.529Z,3.70
2022-11-28T19:12:29.539Z,3.70
2022-11-28T19:17:31.490Z,3.70
2022-11-28T19:22:36.000Z,3.60
2022-11-28T19:27:37.861Z,3.60
2022-11-28T19:32:39.710Z,3.60
2022-11-28T19:37:42.157Z,3.60
2022-11-28T19:42:43.989Z,3.60
2022-11-28T19:47:48.610Z,3.60
2022-11-28T19:52:50.647Z,3.60
2022-11-28T19:57:52.488Z,3.60
2022-11-28T20:02:54.344Z,3.70
2022-11-28T20:07:58.625Z,3.60
2022-11-28T20:13:00.751Z,3.70
2022-11-28T20:18:02.833Z,3.60
2022-11-28T20:23:04.725Z,3.70
2022-11-28T20:28:06.707Z,3.70
2022-11-28T20:33:08.774Z,3.70
2022-11-28T20:38:10.571Z,3.70
2022-11-28T20:43:12.387Z,3.70
2022-11-28T20:48:14.235Z,3.70
2022-11-28T20:53:16.218Z,3.70
2022-11-28T20:58:18.044Z,3.70
2022-11-28T21:03:19.982Z,3.70
2022-11-28T21:08:21.907Z,3.70
2022-11-28T21:13:24.063Z,3.70
2022-11-28T21:18:26.004Z,3.70
2022-11-28T21:23:27.821Z,3.70
2022-11-28T21:28:29.881Z,3.70
2022-11-28T21:33:32.551Z,3.60
2022-11-28T21:38:35.004Z,3.60
2022-11-28T21:43:36.846Z,3.60
2022-11-28T21:48:38.833Z,3.60
2022-11-28T21:53:40.890Z,3.60
2022-11-28T21:58:42.792Z,3.60
2022-11-28T22:03:44.714Z,3.60
2022-11-28T22:08:48.516Z,3.60
2022-11-28T22:13:53.163Z,3.60
2022-11-28T22:18:57.461Z,3.50
2022-11-28T22:23:59.337Z,3.50
2022-11-28T22:29:04.040Z,3.50
2022-11-28T22:34:06.016Z,3.50
2022-11-28T22:39:07.875Z,3.50
2022-11-28T22:44:11.608Z,3.50
2022-11-28T22:49:13.439Z,3.50
2022-11-28T22:54:15.347Z,3.40
2022-11-28T22:59:17.324Z,3.40
2022-11-28T23:04:19.294Z,3.40
2022-11-28T23:09:21.265Z,3.40
2022-11-28T23:14:23.494Z,3.40
2022-11-28T23:19:26.375Z,3.30
2022-11-28T23:24:28.258Z,3.40
2022-11-28T23:29:30.166Z,3.30
2022-11-28T23:34:31.994Z,3.30
2022-11-28T23:39:33.809Z,3.30
2022-11-28T23:44:35.656Z,3.30
2022-11-28T23:49:37.468Z,3.20
2022-11-28T23:54:39.466Z,3.20
2022-11-28T23:59:41.294Z,3.20
